Time;durP1;ratioP1;P1;durP2;ratioP2;P2;SDS_P1;SDS_P2;PMS_P1;PMS_P2;Temp;Humidity;BMP_temperature;BMP_pressure;BME280_temperature;BME280_humidity;BME280_pressure;Samples;Min_cycle;Max_cycle;Signal;HPM_P1;HPM_P2
2022/05/11 00:02:07;;;;;;;16.67;4.43;;;;;;;16.63;53.09;101283.72;5226879;28;20900;-45
2022/05/11 00:04:39;;;;;;;12.77;4.47;;;;;;;16.10;53.22;101212.50;5224821;28;20469;-45
2022/05/11 00:07:12;;;;;;;14.45;5.22;;;;;;;16.62;53.29;101282.09;5225161;28;20443;-46
2022/05/11 00:09:45;;;;;;;11.95;4.63;;;;;;;16.65;53.28;101295.06;5228048;28;20963;-46
2022/05/11 00:12:18;;;;;;;16.73;5.13;;;;;;;16.21;53.27;101234.41;5227364;28;20411;-44
2022/05/11 00:14:51;;;;;;;15.23;5.47;;;;;;;16.53;53.28;101279.47;5225999;28;20526;-46
2022/05/11 00:17:24;;;;;;;12.88;4.43;;;;;;;16.72;53.38;101285.31;5225405;28;20511;-46
2022/05/11 00:19:56;;;;;;;19.77;6.25;;;;;;;16.47;53.36;101250.03;5226380;28;20435;-49
2022/05/11 00:22:29;;;;;;;20.20;5.78;;;;;;;16.51;53.27;101260.19;5222830;28;20500;-45
2022/05/11 00:25:04;;;;;;;15.03;5.23;;;;;;;16.49;53.51;101256.03;5221066;28;20406;-48
2022/05/11 00:27:37;;;;;;;14.20;4.68;;;;;;;16.44;53.47;101251.22;5227592;28;20404;-46
2022/05/11 00:30:12;;;;;;;12.65;4.80;;;;;;;16.58;53.59;101274.44;5223275;28;20887;-45
2022/05/11 00:32:44;;;;;;;20.63;5.82;;;;;;;16.56;53.67;101271.13;5223987;28;20474;-49
2022/05/11 00:35:17;;;;;;;18.67;4.78;;;;;;;16.51;53.52;101257.50;5227715;28;20424;-46
2022/05/11 00:37:49;;;;;;;15.20;4.95;;;;;;;16.56;53.37;101260.44;5223206;28;20495;-47
2022/05/11 00:40:25;;;;;;;16.95;5.38;;;;;;;16.62;53.45;101264.25;5225510;28;20997;-45
2022/05/11 00:42:58;;;;;;;14.30;4.93;;;;;;;16.58;53.59;101262.94;5212108;28;20860;-44
2022/05/11 00:45:30;;;;;;;14.57;5.20;;;;;;;16.54;53.64;101262.47;5225718;28;20898;-44
2022/05/11 00:50:56;;;;;;;15.55;5.35;;;;;;;16.57;53.54;101258.63;5218552;28;20453;-45
2022/05/11 00:53:28;;;;;;;19.20;4.77;;;;;;;16.49;53.47;101248.84;5230316;28;20465;-44
2022/05/11 00:56:05;;;;;;;14.25;4.25;;;;;;;16.54;53.57;101257.16;5224213;28;20459;-46
2022/05/11 00:58:41;;;;;;;17.75;5.25;;;;;;;16.48;53.53;101247.19;5225766;28;20400;-46
2022/05/11 01:01:14;;;;;;;14.85;5.05;;;;;;;16.53;53.46;101255.47;5200543;28;20487;-44
2022/05/11 01:03:52;;;;;;;16.50;4.47;;;;;;;16.30;53.50;101218.16;5222117;28;20534;-47
2022/05/11 01:06:25;;;;;;;18.13;5.03;;;;;;;16.28;53.60;101222.03;5228104;28;20424;-50
2022/05/11 01:08:59;;;;;;;16.25;5.15;;;;;;;16.26;53.65;101213.34;5227079;28;20415;-48
2022/05/11 01:11:38;;;;;;;21.40;5.18;;;;;;;16.11;53.64;101198.16;5224784;28;20504;-49
2022/05/11 01:14:14;;;;;;;17.17;4.50;;;;;;;16.35;53.57;101228.28;5214305;28;20457;-47
2022/05/11 01:16:47;;;;;;;17.35;4.45;;;;;;;16.37;53.49;101234.28;5226870;28;20806;-45
2022/05/11 01:19:28;;;;;;;21.92;4.80;;;;;;;16.39;53.44;101232.28;5225456;28;20767;-44
2022/05/11 01:22:10;;;;;;;19.00;5.72;;;;;;;16.31;53.44;101219.00;5220815;28;20440;-45
2022/05/11 01:24:47;;;;;;;21.70;5.32;;;;;;;16.34;53.27;101231.97;5217264;28;20415;-44
2022/05/11 01:27:29;;;;;;;17.80;4.63;;;;;;;16.37;53.41;101210.28;5226953;28;20934;-47
2022/05/11 01:30:05;;;;;;;16.15;4.30;;;;;;;16.39;53.36;101221.59;5224701;28;20905;-44
2022/05/11 01:32:39;;;;;;;14.32;5.07;;;;;;;16.37;53.25;101208.44;5222560;28;20447;-43
2022/05/11 01:35:39;;;;;;;14.98;4.30;;;;;;;16.35;53.20;101206.97;5227355;28;20423;-47
2022/05/11 01:38:24;;;;;;;21.50;5.30;;;;;;;16.39;53.41;101221.59;5201898;28;20944;-45
2022/05/11 01:40:59;;;;;;;16.67;4.90;;;;;;;16.37;53.30;101220.94;5219220;28;21092;-44
2022/05/11 01:43:34;;;;;;;19.67;6.00;;;;;;;16.42;53.32;101215.09;5226065;28;20434;-44
2022/05/11 01:46:07;;;;;;;26.23;5.90;;;;;;;16.30;53.36;101196.03;5225319;28;20884;-45
2022/05/11 01:48:40;;;;;;;15.07;5.13;;;;;;;16.32;53.44;101209.97;5222024;28;20498;-48
2022/05/11 01:51:13;;;;;;;16.42;4.68;;;;;;;16.29;53.54;101224.53;5228454;28;20451;-43
2022/05/11 01:53:48;;;;;;;17.52;5.43;;;;;;;16.24;53.52;101208.22;5226250;28;20475;-45
2022/05/11 01:56:26;;;;;;;20.83;5.10;;;;;;;16.23;53.57;101211.06;5206231;28;20431;-46
2022/05/11 01:58:58;;;;;;;19.05;4.35;;;;;;;16.22;53.71;101209.41;5212857;28;20425;-45
2022/05/11 02:01:32;;;;;;;18.50;5.03;;;;;;;16.18;53.78;101205.44;5224903;28;20477;-48
2022/05/11 02:07:49;;;;;;;19.10;4.53;;;;;;;16.25;53.83;101214.38;5226953;28;20400;-45
2022/05/11 02:09:47;;;;;;;14.75;4.78;;;;;;;16.31;53.59;101209.16;5220208;28;20407;-44
2022/05/11 02:12:21;;;;;;;18.05;4.40;;;;;;;16.26;53.59;101213.34;5225660;28;20586;-45
2022/05/11 02:14:54;;;;;;;15.50;5.10;;;;;;;16.22;53.63;101193.41;5213859;28;20459;-44
2022/05/11 02:17:26;;;;;;;21.37;5.47;;;;;;;16.27;53.70;101202.53;5225442;28;20499;-45
2022/05/11 02:19:58;;;;;;;15.88;5.63;;;;;;;16.31;53.69;101209.16;5225694;28;20494;-43
2022/05/11 02:22:31;;;;;;;16.92;5.82;;;;;;;16.32;53.62;101208.16;5225599;28;20939;-44
2022/05/11 02:25:04;;;;;;;18.35;5.13;;;;;;;16.30;53.80;101206.69;5220175;28;20399;-45
2022/05/11 02:27:38;;;;;;;17.37;5.50;;;;;;;16.33;53.87;101206.34;5223783;28;20399;-45
2022/05/11 02:30:14;;;;;;;19.77;5.60;;;;;;;16.30;53.72;101196.03;5223156;28;20499;-47
2022/05/11 02:32:47;;;;;;;20.98;5.45;;;;;;;16.18;54.17;101170.81;5223654;28;20408;-45
2022/05/11 02:35:21;;;;;;;19.10;6.35;;;;;;;16.28;53.96;101184.72;5225189;28;20515;-44
2022/05/11 02:37:56;;;;;;;16.50;5.63;;;;;;;15.63;53.78;101082.91;5222322;28;20768;-44
2022/05/11 02:40:32;;;;;;;22.40;5.03;;;;;;;16.08;53.93;101149.72;5228020;28;20419;-46
2022/05/11 02:43:08;;;;;;;15.65;4.90;;;;;;;16.12;53.89;101148.34;5232732;28;20899;-45
2022/05/11 02:45:42;;;;;;;18.25;5.50;;;;;;;16.34;53.92;101181.31;5226336;28;20451;-43
2022/05/11 02:48:18;;;;;;;19.17;5.50;;;;;;;16.28;53.87;101182.88;5232164;28;20423;-45
2022/05/11 02:50:54;;;;;;;18.25;5.60;;;;;;;16.33;53.90;101185.00;5228464;28;20514;-45
2022/05/11 02:53:29;;;;;;;16.63;5.32;;;;;;;16.29;54.00;101175.69;5227920;28;21763;-46
2022/05/11 02:56:03;;;;;;;14.20;5.00;;;;;;;16.28;54.13;101174.88;5223674;28;20406;-46
2022/05/11 02:58:36;;;;;;;23.33;5.82;;;;;;;16.27;54.15;101175.06;5229198;28;20489;-45
2022/05/11 03:01:09;;;;;;;17.63;5.03;;;;;;;16.30;53.98;101174.69;5223466;28;20826;-43
2022/05/11 03:03:41;;;;;;;15.57;5.28;;;;;;;16.31;54.09;101171.84;5229714;28;20423;-48
2022/05/11 03:06:14;;;;;;;21.80;5.77;;;;;;;16.30;54.27;101178.19;5226304;28;20443;-45
2022/05/11 03:09:05;;;;;;;17.75;5.40;;;;;;;16.29;54.25;101171.22;5227684;28;20469;-46
2022/05/11 03:11:37;;;;;;;20.40;5.72;;;;;;;16.29;54.32;101167.69;5226892;28;20881;-44
2022/05/11 03:14:11;;;;;;;19.10;6.22;;;;;;;16.21;54.42;101160.59;5222359;28;20437;-46
2022/05/11 03:17:09;;;;;;;16.02;5.63;;;;;;;16.26;54.37;101163.56;5228986;28;20927;-47
2022/05/11 03:19:41;;;;;;;20.17;5.30;;;;;;;16.22;54.47;101158.75;5224606;28;20771;-44
2022/05/11 03:22:14;;;;;;;17.17;5.25;;;;;;;16.23;54.41;101163.09;5224935;28;20968;-43
2022/05/11 03:24:46;;;;;;;17.57;5.43;;;;;;;16.09;54.57;101136.22;5228514;28;20456;-43
2022/05/11 03:27:21;;;;;;;18.25;4.82;;;;;;;16.13;54.65;101147.34;5228037;28;21152;-47
2022/05/11 03:29:55;;;;;;;18.77;6.13;;;;;;;16.22;54.55;101161.44;5212503;28;20447;-49
2022/05/11 03:35:21;;;;;;;17.58;4.95;;;;;;;16.22;54.65;101154.25;5197128;28;20712;-46
2022/05/11 03:37:54;;;;;;;20.80;6.15;;;;;;;16.06;54.78;101125.09;5224622;28;20424;-47
2022/05/11 03:40:26;;;;;;;23.25;5.95;;;;;;;16.12;54.72;101146.50;5226976;28;20895;-47
2022/05/11 03:42:59;;;;;;;21.42;6.55;;;;;;;16.19;54.91;101140.47;5226010;28;20396;-49
2022/05/11 03:45:33;;;;;;;24.17;6.30;;;;;;;16.19;54.83;101140.47;5229281;28;20491;-46
2022/05/11 03:48:08;;;;;;;27.42;5.97;;;;;;;15.47;54.96;101023.66;5229290;28;20896;-49
2022/05/11 03:50:41;;;;;;;16.45;5.63;;;;;;;15.98;54.94;101111.81;5223806;28;20510;-48
2022/05/11 03:53:13;;;;;;;25.48;6.45;;;;;;;16.02;54.96;101113.97;5229607;28;20749;-44
2022/05/11 03:55:46;;;;;;;16.30;5.72;;;;;;;16.12;55.05;101124.38;5225034;28;20477;-46
2022/05/11 03:58:18;;;;;;;16.77;5.13;;;;;;;15.66;54.93;101050.59;5227192;28;20477;-44
2022/05/11 04:00:53;;;;;;;18.55;5.30;;;;;;;16.07;55.09;101116.09;5223426;28;20428;-44
2022/05/11 04:03:25;;;;;;;22.23;5.93;;;;;;;16.10;54.99;101116.56;5225330;28;20429;-43
2022/05/11 04:05:57;;;;;;;19.40;6.05;;;;;;;16.10;55.02;101126.38;5227026;28;20431;-55
2022/05/11 04:08:30;;;;;;;12.60;4.47;;;;;;;16.05;55.04;101121.59;5222880;28;20491;-52
2022/05/11 04:11:02;;;;;;;19.52;5.63;;;;;;;16.03;55.13;101115.63;5230096;28;20461;-44
2022/05/11 04:13:35;;;;;;;14.25;4.95;;;;;;;16.05;55.08;101118.94;5227048;28;20404;-45
2022/05/11 04:16:09;;;;;;;18.90;5.40;;;;;;;16.03;55.18;101115.63;5227792;28;20483;-46
2022/05/11 04:18:42;;;;;;;17.90;4.37;;;;;;;15.98;55.07;101107.34;5223088;28;20842;-47
2022/05/11 04:21:15;;;;;;;24.90;5.40;;;;;;;15.81;55.37;101089.81;5223846;28;20744;-52
2022/05/11 04:23:48;;;;;;;24.23;5.90;;;;;;;15.90;55.25;101104.75;5214416;28;20530;-46
2022/05/11 04:26:20;;;;;;;16.40;4.90;;;;;;;15.87;55.21;101086.44;5223375;28;20534;-45
2022/05/11 04:28:53;;;;;;;16.25;5.05;;;;;;;15.89;55.23;101095.94;5228509;28;20404;-44
2022/05/11 04:31:27;;;;;;;17.77;4.90;;;;;;;15.87;55.24;101097.94;5231468;28;20761;-45
2022/05/11 04:33:59;;;;;;;14.13;4.80;;;;;;;15.87;55.22;101099.75;5224989;28;20446;-47
2022/05/11 04:36:32;;;;;;;15.57;5.05;;;;;;;15.96;55.07;101120.00;5230562;28;20438;-46
2022/05/11 04:39:05;;;;;;;20.55;4.97;;;;;;;15.89;55.08;101108.41;5228030;28;20439;-45
2022/05/11 04:41:38;;;;;;;13.35;4.20;;;;;;;15.99;55.04;101129.50;5212909;28;20794;-45
2022/05/11 04:44:11;;;;;;;20.05;4.60;;;;;;;15.82;55.12;101110.13;5223715;28;20467;-45
2022/05/11 04:46:44;;;;;;;13.98;4.72;;;;;;;15.84;55.03;101090.28;5226498;28;20561;-44
2022/05/11 04:49:19;;;;;;;20.27;4.75;;;;;;;16.02;54.79;101113.97;5226972;28;20424;-45
2022/05/11 04:52:00;;;;;;;17.80;4.78;;;;;;;15.90;54.72;101081.59;5228649;28;20439;-46
2022/05/11 04:54:37;;;;;;;17.83;4.63;;;;;;;16.02;54.75;101108.63;5223607;28;20903;-46
2022/05/11 04:57:11;;;;;;;16.38;4.50;;;;;;;16.02;54.64;101107.81;5222451;28;20752;-48
2022/05/11 04:59:44;;;;;;;16.15;4.82;;;;;;;16.11;54.47;101128.88;5224149;28;20416;-44
2022/05/11 05:02:20;;;;;;;16.55;4.53;;;;;;;16.12;54.40;101114.53;5219964;28;20422;-45
2022/05/11 05:04:58;;;;;;;17.02;4.72;;;;;;;16.18;54.42;101126.31;5228818;28;20920;-45
2022/05/11 05:07:30;;;;;;;17.92;4.47;;;;;;;16.19;54.27;101108.50;5201058;28;20404;-45
2022/05/11 05:10:03;;;;;;;14.82;4.40;;;;;;;16.12;54.25;101105.72;5228683;28;20399;-46
2022/05/11 05:12:36;;;;;;;14.93;3.95;;;;;;;16.23;53.86;101152.41;5227478;28;20510;-47
2022/05/11 05:15:11;;;;;;;17.85;4.95;;;;;;;16.25;54.07;101110.44;5221059;28;20519;-46
2022/05/11 05:17:45;;;;;;;12.77;3.42;;;;;;;16.17;54.06;101105.19;5226191;28;20416;-45
2022/05/11 05:20:18;;;;;;;13.20;3.80;;;;;;;16.11;53.93;101102.25;5226165;28;20411;-45
2022/05/11 05:22:51;;;;;;;15.13;3.60;;;;;;;16.24;53.91;101117.63;5228750;28;20490;-43
2022/05/11 05:25:23;;;;;;;16.02;3.97;;;;;;;16.19;53.74;101113.81;5225033;28;20785;-45
2022/05/11 05:31:04;;;;;;;12.80;3.58;;;;;;;16.28;53.78;101131.41;5226767;28;20655;-46
2022/05/11 05:31:06;;;;;;;13.00;3.25;;;;;;;16.31;53.35;101128.38;5226885;28;20416;-50
2022/05/11 05:33:41;;;;;;;12.88;4.18;;;;;;;16.29;53.72;101122.38;5227975;28;20569;-45
2022/05/11 05:36:13;;;;;;;14.55;3.28;;;;;;;16.31;53.64;101133.72;5226175;28;20443;-45
2022/05/11 05:38:45;;;;;;;17.83;4.18;;;;;;;16.30;53.50;101121.41;5228921;28;20451;-49
2022/05/11 05:41:18;;;;;;;15.20;4.32;;;;;;;16.38;53.43;101113.31;5227884;28;20411;-48
2022/05/11 05:43:50;;;;;;;14.30;3.67;;;;;;;16.56;53.11;101132.47;5228105;28;20846;-47
2022/05/11 05:46:24;;;;;;;16.17;4.13;;;;;;;16.67;53.05;101133.03;5228233;28;20407;-47
2022/05/11 05:48:57;;;;;;;15.57;3.83;;;;;;;16.72;52.88;101125.31;5228497;28;20442;-50
2022/05/11 05:51:30;;;;;;;13.23;3.35;;;;;;;16.84;52.91;101129.22;5228088;28;20538;-49
2022/05/11 05:54:03;;;;;;;20.40;4.20;;;;;;;16.89;52.76;101116.16;5229360;28;20501;-51
2022/05/11 05:56:35;;;;;;;17.30;4.18;;;;;;;17.01;52.96;101129.88;5218742;28;20413;-45
2022/05/11 05:59:10;;;;;;;20.60;4.70;;;;;;;17.03;52.54;101123.34;5229223;28;20479;-46
2022/05/11 06:01:42;;;;;;;14.43;3.78;;;;;;;16.99;52.69;101115.88;5225207;28;20415;-49
2022/05/11 06:04:16;;;;;;;19.88;4.25;;;;;;;17.00;52.52;101120.19;5227886;28;20423;-47
2022/05/11 06:06:49;;;;;;;21.70;4.70;;;;;;;17.08;52.31;101124.63;5227921;28;20411;-49
2022/05/11 06:09:21;;;;;;;19.20;3.53;;;;;;;17.04;52.35;101121.50;5227822;28;20416;-46
2022/05/11 06:11:54;;;;;;;16.83;3.43;;;;;;;17.11;52.24;101129.56;5230012;28;20449;-46
2022/05/11 06:14:26;;;;;;;17.00;3.87;;;;;;;17.19;52.03;101137.50;5235425;28;20547;-50
2022/05/11 06:17:00;;;;;;;20.80;3.80;;;;;;;17.26;51.94;101133.88;5232391;28;20761;-51
2022/05/11 06:19:35;;;;;;;14.23;4.55;;;;;;;17.26;51.89;101133.88;5231780;28;20412;-51
2022/05/11 06:22:07;;;;;;;21.70;4.60;;;;;;;17.39;51.76;101135.06;5232541;28;20420;-52
2022/05/11 06:24:39;;;;;;;16.40;3.90;;;;;;;17.46;51.69;101133.28;5226904;28;20419;-53
2022/05/11 06:27:17;;;;;;;24.25;4.85;;;;;;;17.50;51.50;101135.41;5223859;28;20439;-52
2022/05/11 06:29:53;;;;;;;15.85;3.60;;;;;;;17.54;51.39;101119.84;5227857;28;20498;-51
2022/05/11 06:32:26;;;;;;;16.17;3.97;;;;;;;17.53;51.37;101115.50;5231759;28;20467;-50
2022/05/11 06:35:00;;;;;;;19.80;5.10;;;;;;;17.44;51.42;101096.09;5231930;28;22855;-50
2022/05/11 06:37:39;;;;;;;18.20;4.72;;;;;;;17.67;51.35;101135.16;5204099;28;20530;-48
2022/05/11 06:40:15;;;;;;;18.05;3.97;;;;;;;17.80;51.51;101148.69;5196855;28;20420;-53
2022/05/11 06:42:48;;;;;;;21.83;4.82;;;;;;;18.00;51.19;101134.72;5212330;28;20428;-53
2022/05/11 06:45:23;;;;;;;22.25;4.13;;;;;;;18.03;50.94;101118.31;5213228;28;20463;-55
2022/05/11 06:47:55;;;;;;;14.88;4.43;;;;;;;18.20;50.89;101133.84;5210894;28;20409;-54
2022/05/11 06:50:29;;;;;;;18.73;4.40;;;;;;;18.22;50.76;101130.19;5212380;28;20417;-49
2022/05/11 06:53:11;;;;;;;16.95;4.25;;;;;;;18.20;50.72;101125.00;5210975;28;20417;-52
2022/05/11 07:01:24;;;;;;;26.73;5.33;;;;;;;20.03;49.29;101110.25;5207416;28;20413;-50
2022/05/11 07:03:56;;;;;;;21.15;3.88;;;;;;;21.65;47.39;101097.88;5205316;28;20492;-51
2022/05/11 07:06:30;;;;;;;17.48;4.10;;;;;;;22.31;46.88;101123.47;5191393;28;21893;-51
2022/05/11 07:09:02;;;;;;;23.80;3.90;;;;;;;22.40;46.95;101121.31;5205064;28;20464;-51
2022/05/11 07:14:30;;;;;;;17.57;3.50;;;;;;;22.01;46.99;101110.63;5204168;28;20501;-52
2022/05/11 07:17:03;;;;;;;19.50;4.22;;;;;;;21.83;47.13;101097.09;5208934;28;20413;-49
2022/05/11 07:19:37;;;;;;;18.70;3.60;;;;;;;21.77;47.05;101103.34;5210390;28;20416;-53
2022/05/11 07:22:10;;;;;;;18.33;3.93;;;;;;;21.59;46.97;101078.06;5206065;28;20448;-50
2022/05/11 07:24:43;;;;;;;26.63;4.72;;;;;;;21.63;46.80;101090.00;5209507;28;20500;-48
2022/05/11 07:27:17;;;;;;;17.58;4.43;;;;;;;22.06;46.26;101101.91;5207735;28;20414;-52
2022/05/11 07:29:50;;;;;;;17.98;4.57;;;;;;;22.28;45.77;101083.53;5206907;28;20555;-52
2022/05/11 07:32:25;;;;;;;15.80;3.83;;;;;;;22.28;45.98;101102.38;5211294;28;20524;-48
2022/05/11 07:35:00;;;;;;;23.08;4.90;;;;;;;21.99;45.92;101099.28;5208724;28;20629;-52
2022/05/11 07:37:34;;;;;;;20.03;3.90;;;;;;;21.83;45.86;101094.41;5216478;28;20505;-49
2022/05/11 07:40:10;;;;;;;21.13;4.72;;;;;;;21.71;46.00;101104.22;5226950;28;20526;-53
2022/05/11 07:42:43;;;;;;;16.08;3.67;;;;;;;21.60;46.15;101105.75;5227170;28;20419;-51
2022/05/11 07:45:18;;;;;;;15.77;3.67;;;;;;;21.84;45.88;101109.53;5230651;28;21013;-52
2022/05/11 07:47:50;;;;;;;13.85;4.00;;;;;;;22.52;45.43;101103.41;5222557;28;20516;-51
2022/05/11 07:50:23;;;;;;;26.08;4.28;;;;;;;23.04;44.79;101095.78;5225176;28;20503;-54
2022/05/11 07:52:56;;;;;;;17.83;3.92;;;;;;;23.77;44.33;101094.81;5227120;28;20851;-52
2022/05/11 07:55:33;;;;;;;20.92;3.65;;;;;;;24.14;43.96;101070.34;5226049;28;20471;-54
2022/05/11 08:00:56;;;;;;;15.57;4.17;;;;;;;25.63;43.06;101121.03;5223879;28;20497;-54
2022/05/11 08:03:31;;;;;;;14.85;3.72;;;;;;;25.95;42.86;101112.41;5228571;28;20412;-51
2022/05/11 08:06:05;;;;;;;17.48;3.53;;;;;;;26.23;42.59;101108.81;5229275;28;20494;-51
2022/05/11 08:08:39;;;;;;;15.82;3.53;;;;;;;26.48;42.46;101107.53;5231350;28;20415;-49
2022/05/11 08:11:11;;;;;;;11.00;3.33;;;;;;;26.22;42.29;101094.44;5226385;28;20499;-52
2022/05/11 08:13:44;;;;;;;17.25;3.75;;;;;;;26.02;42.64;101113.09;5220391;28;20428;-52
2022/05/11 08:16:18;;;;;;;14.93;3.83;;;;;;;25.64;42.83;101119.16;5223093;28;20419;-53
2022/05/11 08:18:50;;;;;;;17.03;4.40;;;;;;;25.18;42.84;101121.84;5219818;28;20416;-50
2022/05/11 08:21:23;;;;;;;18.00;4.55;;;;;;;24.84;42.96;101115.44;5215342;28;20512;-50
2022/05/11 08:23:56;;;;;;;19.88;3.75;;;;;;;24.39;43.23;101113.31;5214893;28;20422;-48
2022/05/11 08:26:32;;;;;;;18.23;4.13;;;;;;;23.99;43.33;101116.69;5227457;28;20516;-49
2022/05/11 08:29:04;;;;;;;21.20;5.07;;;;;;;23.81;43.39;101122.97;5210628;28;20413;-51
2022/05/11 08:34:26;;;;;;;15.32;4.18;;;;;;;23.80;43.22;101115.13;5226338;28;20416;-53
2022/05/11 08:37:02;;;;;;;16.97;4.10;;;;;;;23.90;43.05;101105.41;5228061;28;23078;-50
2022/05/11 08:39:36;;;;;;;25.50;5.22;;;;;;;24.06;42.98;101122.81;5224716;28;20475;-53
2022/05/11 08:42:13;;;;;;;14.55;4.00;;;;;;;23.92;42.81;101114.09;5227993;28;20427;-52
2022/05/11 08:44:50;;;;;;;17.10;4.15;;;;;;;23.83;42.84;101107.38;5224205;28;20939;-50
2022/05/11 08:47:35;;;;;;;14.83;4.20;;;;;;;23.74;42.71;101095.28;5226678;28;20456;-51
2022/05/11 08:50:12;;;;;;;17.98;3.90;;;;;;;23.81;42.69;101114.88;5227816;28;20490;-53
2022/05/11 08:52:55;;;;;;;16.40;3.80;;;;;;;23.72;42.75;101116.25;5226870;28;20403;-52
2022/05/11 08:55:40;;;;;;;25.25;4.20;;;;;;;23.84;42.52;101122.50;5227365;28;20412;-51
2022/05/11 08:58:21;;;;;;;24.35;4.68;;;;;;;23.83;42.45;101110.06;5224242;28;20427;-53
2022/05/11 09:00:56;;;;;;;23.83;4.00;;;;;;;23.99;42.32;101105.06;5223930;28;20427;-51
2022/05/11 09:03:34;;;;;;;21.27;4.07;;;;;;;24.01;42.13;101111.88;5239656;22;21727;-52
2022/05/11 09:06:18;;;;;;;22.90;4.50;;;;;;;24.09;42.01;101113.41;5221580;28;20411;-52
2022/05/11 09:08:50;;;;;;;25.42;4.97;;;;;;;24.15;41.91;101123.25;5226095;28;20454;-49
2022/05/11 09:11:33;;;;;;;18.73;4.65;;;;;;;24.15;41.88;101123.25;5227255;28;20422;-51
2022/05/11 09:14:06;;;;;;;23.60;4.93;;;;;;;24.16;41.79;101130.31;5222372;28;20458;-54
2022/05/11 09:16:43;;;;;;;14.65;3.83;;;;;;;23.90;41.63;101094.59;5224372;28;20855;-49
2022/05/11 09:19:19;;;;;;;19.60;4.47;;;;;;;24.00;41.71;101130.97;5223396;28;20503;-49
2022/05/11 09:21:55;;;;;;;15.68;4.03;;;;;;;24.03;41.57;101122.41;5224656;28;20420;-54
2022/05/11 09:24:32;;;;;;;26.73;5.38;;;;;;;24.12;41.55;101123.72;5201256;28;20838;-52
2022/05/11 09:27:11;;;;;;;22.25;4.60;;;;;;;24.02;41.52;101118.09;5211899;28;20427;-49
2022/05/11 09:29:45;;;;;;;18.85;4.20;;;;;;;23.99;41.32;101124.78;5220462;28;20651;-53
2022/05/11 09:32:35;;;;;;;20.55;4.95;;;;;;;23.91;41.36;101107.06;5204818;28;20492;-52
2022/05/11 09:35:25;;;;;;;18.77;5.15;;;;;;;24.09;41.12;101116.09;5218076;28;20422;-50
2022/05/11 09:38:10;;;;;;;21.85;4.00;;;;;;;24.06;41.18;101127.34;5224609;28;20468;-49
2022/05/11 09:40:57;;;;;;;21.42;4.90;;;;;;;23.67;41.36;101079.19;5222724;28;21048;-52
2022/05/11 09:43:38;;;;;;;19.52;4.95;;;;;;;23.82;41.19;101135.41;5220452;28;20408;-53
2022/05/11 09:46:29;;;;;;;22.50;4.70;;;;;;;23.72;41.11;101129.75;5224464;28;20460;-52
2022/05/11 09:49:05;;;;;;;20.83;4.60;;;;;;;23.79;41.19;101141.28;5222828;28;20521;-48
2022/05/11 09:51:44;;;;;;;18.50;4.90;;;;;;;23.73;41.10;101131.41;5224018;28;20452;-48
2022/05/11 09:54:38;;;;;;;17.35;3.92;;;;;;;23.80;40.88;101124.03;5222210;28;22292;-50
2022/05/11 09:57:23;;;;;;;19.50;5.03;;;;;;;24.12;40.59;101119.16;5220271;28;20494;-48
2022/05/11 10:00:20;;;;;;;20.75;4.43;;;;;;;24.30;40.22;101120.94;5224714;28;20923;-47
2022/05/11 10:02:56;;;;;;;23.55;4.88;;;;;;;24.37;40.10;101132.47;5225332;28;20427;-48
2022/05/11 10:05:34;;;;;;;22.52;4.95;;;;;;;24.36;40.00;101136.19;5226584;28;21993;-47
2022/05/11 10:08:18;;;;;;;28.73;5.63;;;;;;;24.30;40.22;101133.59;5224127;28;20461;-50
2022/05/11 10:10:56;;;;;;;24.33;5.07;;;;;;;24.18;39.93;101133.59;5224422;28;20427;-52
2022/05/11 10:13:35;;;;;;;25.13;5.53;;;;;;;23.88;40.49;101121.00;5196696;28;20447;-47
2022/05/11 10:22:17;;;;;;;23.52;5.47;;;;;;;23.60;40.81;101128.84;5223103;28;20400;-48
2022/05/11 10:25:16;;;;;;;24.42;5.50;;;;;;;23.30;41.07;101116.19;5223821;28;20423;-47
2022/05/11 10:27:54;;;;;;;21.42;5.00;;;;;;;23.29;41.14;101130.72;5223425;28;20507;-47
2022/05/11 10:30:34;;;;;;;22.60;4.60;;;;;;;23.29;41.08;101130.72;5223836;28;20469;-48
2022/05/11 10:33:46;;;;;;;26.73;5.22;;;;;;;23.43;40.93;101121.41;5224484;28;20675;-49
2022/05/11 10:36:30;;;;;;;25.45;5.15;;;;;;;23.60;40.80;101127.00;5224760;28;20416;-51
2022/05/11 10:39:21;;;;;;;22.03;5.50;;;;;;;23.68;40.51;101123.13;5226833;28;20744;-50
2022/05/11 10:42:01;;;;;;;20.83;4.50;;;;;;;23.61;40.64;101125.94;5223930;28;21040;-52
2022/05/11 10:44:48;;;;;;;27.20;5.10;;;;;;;23.51;40.74;101105.97;5210753;28;20596;-50
2022/05/11 10:48:05;;;;;;;24.27;4.78;;;;;;;23.66;40.56;101125.22;5222890;28;20909;-50
2022/05/11 10:50:51;;;;;;;17.60;4.80;;;;;;;23.81;40.38;101112.19;5221325;28;20422;-50
2022/05/11 10:53:43;;;;;;;20.05;5.95;;;;;;;23.93;40.29;101110.31;5221671;28;20422;-51
2022/05/11 10:56:31;;;;;;;22.77;4.72;;;;;;;23.96;40.07;101097.44;5212004;28;20453;-50
2022/05/11 10:59:54;;;;;;;19.60;4.70;;;;;;;23.95;40.16;101107.41;5227522;28;20802;-51
2022/05/11 11:03:23;;;;;;;25.20;4.88;;;;;;;23.89;40.28;101119.94;5227461;28;20412;-48
2022/05/11 11:09:32;;;;;;;17.85;4.28;;;;;;;23.98;40.08;101109.66;5184190;28;20426;-50
2022/05/11 11:12:24;;;;;;;18.40;4.50;;;;;;;23.98;39.81;101103.44;5185639;28;20504;-50
2022/05/11 11:15:02;;;;;;;26.55;4.50;;;;;;;24.07;39.83;101120.94;5182033;28;20454;-49
2022/05/11 11:17:36;;;;;;;16.40;2.93;;;;;;;24.03;39.59;101117.03;5182548;28;20889;-49
2022/05/11 11:20:13;;;;;;;17.10;3.83;;;;;;;23.78;39.63;101072.19;5195047;28;20454;-52
2022/05/11 11:23:59;;;;;;;19.50;4.40;;;;;;;23.96;39.54;101116.31;5196318;28;20488;-46
2022/05/11 11:26:51;;;;;;;11.50;3.15;;;;;;;23.86;39.21;101106.91;5182224;28;20393;-49
2022/05/11 11:29:29;;;;;;;16.88;3.50;;;;;;;23.97;39.12;101110.72;5200601;28;20425;-49
2022/05/11 11:32:15;;;;;;;13.93;3.25;;;;;;;23.90;38.83;101072.22;5200385;28;20433;-47
2022/05/11 11:34:51;;;;;;;14.52;3.67;;;;;;;24.16;38.59;101097.94;5198910;28;20509;-48
2022/05/11 11:37:45;;;;;;;17.38;3.72;;;;;;;24.22;38.60;101102.41;5199781;28;20929;-48
2022/05/11 11:40:34;;;;;;;13.00;3.28;;;;;;;24.28;38.15;101106.88;5201741;28;20897;-49
2022/05/11 11:46:38;;;;;;;20.13;3.77;;;;;;;24.01;38.04;101043.63;5195978;28;20409;-51
2022/05/11 11:49:33;;;;;;;18.13;3.93;;;;;;;24.46;37.91;101097.03;5173532;28;20446;-45
2022/05/11 11:52:09;;;;;;;16.33;3.50;;;;;;;24.29;37.63;101068.00;5201070;28;20413;-50
2022/05/11 11:54:50;;;;;;;18.40;3.75;;;;;;;23.99;37.64;101016.84;5186696;28;20442;-51
2022/05/11 11:57:36;;;;;;;12.88;3.35;;;;;;;24.48;37.33;101092.22;5192826;28;20512;-49
2022/05/11 12:00:49;;;;;;;16.13;3.40;;;;;;;24.40;37.44;101093.34;5197195;28;20520;-49
2022/05/11 12:03:24;;;;;;;18.23;3.75;;;;;;;24.47;37.16;101093.28;5194412;28;20902;-53
2022/05/11 12:15:01;;;;;;;11.27;3.00;;;;;;;24.52;37.10;101098.78;5210281;28;20418;-53
2022/05/11 12:17:38;;;;;;;13.93;3.17;;;;;;;24.57;36.93;101098.91;5213580;28;20862;-49
2022/05/11 12:20:17;;;;;;;16.30;2.97;;;;;;;24.38;37.07;101107.09;5211003;28;20420;-52
2022/05/11 12:22:55;;;;;;;20.02;2.97;;;;;;;24.01;37.20;101078.69;5210939;28;20501;-50
2022/05/11 12:25:31;;;;;;;12.07;3.90;;;;;;;24.27;37.12;101121.41;5213759;28;20425;-50
2022/05/11 12:28:21;;;;;;;12.00;2.40;;;;;;;24.33;36.98;101135.84;5214381;28;20557;-48
2022/05/11 12:30:55;;;;;;;19.13;3.47;;;;;;;24.34;36.74;101116.72;5211799;28;20552;-51
2022/05/11 12:33:34;;;;;;;14.98;3.08;;;;;;;24.27;36.75;101105.19;5214210;28;20464;-51
2022/05/11 12:36:08;;;;;;;13.98;2.55;;;;;;;23.88;36.93;101090.53;5215633;28;20412;-51
2022/05/11 12:38:41;;;;;;;14.07;2.63;;;;;;;23.62;37.06;101118.66;5206307;28;20503;-52
2022/05/11 12:41:19;;;;;;;12.00;2.60;;;;;;;23.32;37.12;101097.94;5212297;28;20720;-50
2022/05/11 12:43:58;;;;;;;15.10;3.47;;;;;;;23.30;37.17;101110.81;5212394;28;20519;-52
2022/05/11 12:46:37;;;;;;;12.40;2.65;;;;;;;23.34;36.94;101095.81;5212941;28;20419;-51
2022/05/11 12:49:15;;;;;;;12.52;3.05;;;;;;;23.36;36.68;101115.28;5212009;28;20448;-45